sensor_id;sensor_type;location;lat;lon;timestamp;pressure;altitude;pressure_sealevel;temperature;humidity
18436;BME280;9346;52.006;4.720;2023-05-18T00:01:09;102751.03;;;10.21;100.00
18436;BME280;9346;52.006;4.720;2023-05-18T00:03:36;102753.41;;;10.17;100.00
18436;BME280;9346;52.006;4.720;2023-05-18T00:06:04;102760.19;;;10.15;100.00
18436;BME280;9346;52.006;4.720;2023-05-18T00:08:33;102752.16;;;10.13;100.00
18436;BME280;9346;52.006;4.720;2023-05-18T00:11:00;102754.09;;;10.13;100.00
18436;BME280;9346;52.006;4.720;2023-05-18T00:13:28;102755.13;;;10.12;100.00
18436;BME280;9346;52.006;4.720;2023-05-18T00:15:55;102757.75;;;10.07;100.00
18436;BME280;9346;52.006;4.720;2023-05-18T00:18:22;102756.25;;;10.04;100.00
18436;BME280;9346;52.006;4.720;2023-05-18T00:20:50;102755.84;;;10.01;100.00
18436;BME280;9346;52.006;4.720;2023-05-18T00:23:24;102757.16;;;9.98;100.00
18436;BME280;9346;52.006;4.720;2023-05-18T00:25:56;102763.69;;;9.97;100.00
18436;BME280;9346;52.006;4.720;2023-05-18T00:28:23;102755.69;;;9.96;100.00
18436;BME280;9346;52.006;4.720;2023-05-18T00:30:50;102755.06;;;9.94;100.00
18436;BME280;9346;52.006;4.720;2023-05-18T00:33:17;102757.19;;;9.92;100.00
18436;BME280;9346;52.006;4.720;2023-05-18T00:35:44;102763.13;;;9.89;100.00
18436;BME280;9346;52.006;4.720;2023-05-18T00:38:11;102760.47;;;9.82;100.00
18436;BME280;9346;52.006;4.720;2023-05-18T00:40:39;102761.53;;;9.81;100.00
18436;BME280;9346;52.006;4.720;2023-05-18T00:43:08;102762.34;;;9.82;100.00
18436;BME280;9346;52.006;4.720;2023-05-18T00:45:35;102763.66;;;9.79;100.00
18436;BME280;9346;52.006;4.720;2023-05-18T00:48:02;102763.88;;;9.78;100.00
18436;BME280;9346;52.006;4.720;2023-05-18T00:50:29;102760.50;;;9.76;100.00
18436;BME280;9346;52.006;4.720;2023-05-18T00:52:56;102768.16;;;9.74;100.00
18436;BME280;9346;52.006;4.720;2023-05-18T00:55:24;102759.88;;;9.74;100.00
18436;BME280;9346;52.006;4.720;2023-05-18T00:57:51;102762.41;;;9.75;100.00
18436;BME280;9346;52.006;4.720;2023-05-18T01:00:22;102763.47;;;9.74;100.00
18436;BME280;9346;52.006;4.720;2023-05-18T01:02:49;102760.50;;;9.76;100.00
18436;BME280;9346;52.006;4.720;2023-05-18T01:05:17;102763.88;;;9.78;100.00
18436;BME280;9346;52.006;4.720;2023-05-18T01:07:44;102764.31;;;9.75;100.00
18436;BME280;9346;52.006;4.720;2023-05-18T01:10:13;102766.22;;;9.74;100.00
18436;BME280;9346;52.006;4.720;2023-05-18T01:12:46;102763.91;;;9.71;100.00
18436;BME280;9346;52.006;4.720;2023-05-18T01:15:17;102773.22;;;9.70;100.00
18436;BME280;9346;52.006;4.720;2023-05-18T01:17:54;102764.13;;;9.70;100.00
18436;BME280;9346;52.006;4.720;2023-05-18T01:20:30;102762.44;;;9.69;100.00
18436;BME280;9346;52.006;4.720;2023-05-18T01:23:28;102773.47;;;9.69;100.00
18436;BME280;9346;52.006;4.720;2023-05-18T01:26:12;102774.53;;;9.68;100.00
18436;BME280;9346;52.006;4.720;2023-05-18T01:28:42;102774.75;;;9.66;100.00
18436;BME280;9346;52.006;4.720;2023-05-18T01:31:11;102769.47;;;9.65;100.00
18436;BME280;9346;52.006;4.720;2023-05-18T01:33:38;102768.84;;;9.63;100.00
18436;BME280;9346;52.006;4.720;2023-05-18T01:36:05;102772.03;;;9.60;100.00
18436;BME280;9346;52.006;4.720;2023-05-18T01:38:33;102767.59;;;9.59;100.00
18436;BME280;9346;52.006;4.720;2023-05-18T01:41:05;102767.25;;;9.49;100.00
18436;BME280;9346;52.006;4.720;2023-05-18T01:43:36;102762.63;;;9.43;100.00
18436;BME280;9346;52.006;4.720;2023-05-18T01:46:13;102767.03;;;9.44;100.00
18436;BME280;9346;52.006;4.720;2023-05-18T01:48:47;102765.78;;;9.46;100.00
18436;BME280;9346;52.006;4.720;2023-05-18T01:51:19;102764.94;;;9.46;100.00
18436;BME280;9346;52.006;4.720;2023-05-18T01:53:52;102772.09;;;9.47;100.00
18436;BME280;9346;52.006;4.720;2023-05-18T01:56:21;102769.56;;;9.45;100.00
18436;BME280;9346;52.006;4.720;2023-05-18T01:58:51;102767.03;;;9.44;100.00
18436;BME280;9346;52.006;4.720;2023-05-18T02:01:18;102772.31;;;9.45;100.00
18436;BME280;9346;52.006;4.720;2023-05-18T02:03:47;102768.34;;;9.41;100.00
18436;BME280;9346;52.006;4.720;2023-05-18T02:06:13;102765.41;;;9.36;100.00
18436;BME280;9346;52.006;4.720;2023-05-18T02:08:40;102769.22;;;9.35;100.00
18436;BME280;9346;52.006;4.720;2023-05-18T02:11:07;102767.94;;;9.38;100.00
18436;BME280;9346;52.006;4.720;2023-05-18T02:13:35;102764.94;;;9.39;100.00
18436;BME280;9346;52.006;4.720;2023-05-18T02:16:04;102767.09;;;9.37;100.00
18436;BME280;9346;52.006;4.720;2023-05-18T02:18:31;102760.13;;;9.35;100.00
18436;BME280;9346;52.006;4.720;2023-05-18T02:21:00;102769.88;;;9.31;100.00
18436;BME280;9346;52.006;4.720;2023-05-18T02:23:28;102763.75;;;9.29;100.00
18436;BME280;9346;52.006;4.720;2023-05-18T02:25:55;102765.88;;;9.27;100.00
18436;BME280;9346;52.006;4.720;2023-05-18T02:28:22;102760.38;;;9.27;100.00
18436;BME280;9346;52.006;4.720;2023-05-18T02:30:49;102758.69;;;9.26;100.00
18436;BME280;9346;52.006;4.720;2023-05-18T02:33:18;102761.44;;;9.26;100.00
18436;BME280;9346;52.006;4.720;2023-05-18T02:35:51;102772.88;;;9.23;100.00
18436;BME280;9346;52.006;4.720;2023-05-18T02:38:17;102765.28;;;9.18;100.00
18436;BME280;9346;52.006;4.720;2023-05-18T02:40:45;102768.25;;;9.17;100.00
18436;BME280;9346;52.006;4.720;2023-05-18T02:43:12;102766.81;;;9.14;100.00
18436;BME280;9346;52.006;4.720;2023-05-18T02:45:39;102753.28;;;9.13;100.00
18436;BME280;9346;52.006;4.720;2023-05-18T02:48:07;102760.03;;;9.10;100.00
18436;BME280;9346;52.006;4.720;2023-05-18T02:50:35;102757.75;;;9.07;100.00
18436;BME280;9346;52.006;4.720;2023-05-18T02:53:02;102759.63;;;9.06;100.00
18436;BME280;9346;52.006;4.720;2023-05-18T02:55:29;102759.63;;;9.06;100.00
18436;BME280;9346;52.006;4.720;2023-05-18T02:57:56;102758.56;;;9.07;100.00
18436;BME280;9346;52.006;4.720;2023-05-18T03:00:24;102754.13;;;9.06;100.00
18436;BME280;9346;52.006;4.720;2023-05-18T03:02:53;102761.75;;;9.04;100.00
18436;BME280;9346;52.006;4.720;2023-05-18T03:05:22;102757.09;;;9.05;100.00
18436;BME280;9346;52.006;4.720;2023-05-18T03:07:50;102754.56;;;9.03;100.00
18436;BME280;9346;52.006;4.720;2023-05-18T03:10:18;102760.72;;;8.99;100.00
18436;BME280;9346;52.006;4.720;2023-05-18T03:12:46;102755.66;;;8.96;100.00
18436;BME280;9346;52.006;4.720;2023-05-18T03:15:13;102762.22;;;8.95;100.00
18436;BME280;9346;52.006;4.720;2023-05-18T03:17:40;102756.94;;;8.93;100.00
18436;BME280;9346;52.006;4.720;2023-05-18T03:20:08;102755.47;;;8.91;100.00
18436;BME280;9346;52.006;4.720;2023-05-18T03:22:38;102757.59;;;8.89;100.00
18436;BME280;9346;52.006;4.720;2023-05-18T03:25:08;102758.66;;;8.88;100.00
18436;BME280;9346;52.006;4.720;2023-05-18T03:27:35;102759.69;;;8.87;100.00
18436;BME280;9346;52.006;4.720;2023-05-18T03:30:03;102749.13;;;8.84;100.00
18436;BME280;9346;52.006;4.720;2023-05-18T03:32:30;102759.31;;;8.83;100.00
18436;BME280;9346;52.006;4.720;2023-05-18T03:34:58;102754.03;;;8.82;100.00
18436;BME280;9346;52.006;4.720;2023-05-18T03:37:29;102758.47;;;8.83;100.00
18436;BME280;9346;52.006;4.720;2023-05-18T03:39:58;102758.25;;;8.84;100.00
18436;BME280;9346;52.006;4.720;2023-05-18T03:42:28;102752.53;;;8.86;100.00
18436;BME280;9346;52.006;4.720;2023-05-18T03:44:55;102757.59;;;8.82;100.00
18436;BME280;9346;52.006;4.720;2023-05-18T03:47:22;102756.34;;;8.78;100.00
18436;BME280;9346;52.006;4.720;2023-05-18T03:49:49;102759.75;;;8.80;100.00
18436;BME280;9346;52.006;4.720;2023-05-18T03:52:16;102759.09;;;8.78;100.00
18436;BME280;9346;52.006;4.720;2023-05-18T03:54:47;102766.09;;;8.74;100.00
18436;BME280;9346;52.006;4.720;2023-05-18T03:57:14;102768.41;;;8.71;100.00
18436;BME280;9346;52.006;4.720;2023-05-18T03:59:42;102765.50;;;8.66;100.00
18436;BME280;9346;52.006;4.720;2023-05-18T04:02:10;102768.44;;;8.64;100.00
18436;BME280;9346;52.006;4.720;2023-05-18T04:04:38;102769.53;;;8.63;100.00
18436;BME280;9346;52.006;4.720;2023-05-18T04:07:06;102771.19;;;8.64;100.00
18436;BME280;9346;52.006;4.720;2023-05-18T04:09:34;102772.28;;;8.63;100.00
18436;BME280;9346;52.006;4.720;2023-05-18T04:12:04;102772.28;;;8.63;100.00
18436;BME280;9346;52.006;4.720;2023-05-18T04:14:31;102775.00;;;8.63;100.00
18436;BME280;9346;52.006;4.720;2023-05-18T04:17:00;102777.56;;;8.65;100.00
18436;BME280;9346;52.006;4.720;2023-05-18T04:19:30;102772.88;;;8.65;100.00
18436;BME280;9346;52.006;4.720;2023-05-18T04:21:57;102775.22;;;8.62;100.00
18436;BME280;9346;52.006;4.720;2023-05-18T04:24:24;102777.75;;;8.63;100.00
18436;BME280;9346;52.006;4.720;2023-05-18T04:26:52;102777.94;;;8.68;100.00
18436;BME280;9346;52.006;4.720;2023-05-18T04:29:18;102772.44;;;8.68;100.00
18436;BME280;9346;52.006;4.720;2023-05-18T04:31:46;102777.94;;;8.68;100.00
18436;BME280;9346;52.006;4.720;2023-05-18T04:34:14;102778.38;;;8.65;100.00
18436;BME280;9346;52.006;4.720;2023-05-18T04:36:43;102778.38;;;8.65;100.00
18436;BME280;9346;52.006;4.720;2023-05-18T04:39:10;102780.50;;;8.63;100.00
18436;BME280;9346;52.006;4.720;2023-05-18T04:41:37;102780.50;;;8.63;100.00
18436;BME280;9346;52.006;4.720;2023-05-18T04:44:06;102781.34;;;8.64;100.00
18436;BME280;9346;52.006;4.720;2023-05-18T04:46:36;102777.31;;;8.66;100.00
18436;BME280;9346;52.006;4.720;2023-05-18T04:49:07;102786.19;;;8.68;100.00
18436;BME280;9346;52.006;4.720;2023-05-18T04:51:37;102787.25;;;8.67;100.00
18436;BME280;9346;52.006;4.720;2023-05-18T04:54:06;102790.63;;;8.69;100.00
18436;BME280;9346;52.006;4.720;2023-05-18T04:56:33;102796.97;;;8.70;100.00
18436;BME280;9346;52.006;4.720;2023-05-18T04:59:00;102797.81;;;8.70;100.00
18436;BME280;9346;52.006;4.720;2023-05-18T05:01:27;102803.31;;;8.70;100.00
18436;BME280;9346;52.006;4.720;2023-05-18T05:03:55;102801.81;;;8.68;100.00
18436;BME280;9346;52.006;4.720;2023-05-18T05:06:22;102797.81;;;8.64;100.00
18436;BME280;9346;52.006;4.720;2023-05-18T05:08:51;102792.97;;;8.66;100.00
18436;BME280;9346;52.006;4.720;2023-05-18T05:11:18;102794.03;;;8.65;100.00
18436;BME280;9346;52.006;4.720;2023-05-18T05:13:45;102791.50;;;8.63;100.00
18436;BME280;9346;52.006;4.720;2023-05-18T05:16:12;102795.28;;;8.62;100.00
18436;BME280;9346;52.006;4.720;2023-05-18T05:18:39;102794.66;;;8.60;100.00
18436;BME280;9346;52.006;4.720;2023-05-18T05:21:07;102789.78;;;8.62;100.00
18436;BME280;9346;52.006;4.720;2023-05-18T05:23:35;102796.78;;;8.65;100.00
18436;BME280;9346;52.006;4.720;2023-05-18T05:26:04;102796.53;;;8.66;100.00
18436;BME280;9346;52.006;4.720;2023-05-18T05:28:31;102797.19;;;8.68;100.00
18436;BME280;9346;52.006;4.720;2023-05-18T05:30:57;102801.59;;;8.69;100.00
18436;BME280;9346;52.006;4.720;2023-05-18T05:33:24;102807.09;;;8.69;100.00
18436;BME280;9346;52.006;4.720;2023-05-18T05:35:52;102808.81;;;8.70;100.00
18436;BME280;9346;52.006;4.720;2023-05-18T05:38:19;102800.75;;;8.75;100.00
18436;BME280;9346;52.006;4.720;2023-05-18T05:40:46;102796.97;;;8.76;100.00
18436;BME280;9346;52.006;4.720;2023-05-18T05:43:14;102798.63;;;8.77;100.00
18436;BME280;9346;52.006;4.720;2023-05-18T05:45:41;102802.22;;;8.84;100.00
18436;BME280;9346;52.006;4.720;2023-05-18T05:48:08;102808.31;;;8.93;100.00
18436;BME280;9346;52.006;4.720;2023-05-18T05:50:35;102801.72;;;9.00;100.00
18436;BME280;9346;52.006;4.720;2023-05-18T05:53:02;102799.84;;;9.01;100.00
18436;BME280;9346;52.006;4.720;2023-05-18T05:55:29;102801.94;;;9.05;100.00
18436;BME280;9346;52.006;4.720;2023-05-18T05:57:56;102804.66;;;9.12;100.00
18436;BME280;9346;52.006;4.720;2023-05-18T06:00:24;102806.53;;;9.18;100.00
18436;BME280;9346;52.006;4.720;2023-05-18T06:02:53;102811.59;;;9.21;100.00
18436;BME280;9346;52.006;4.720;2023-05-18T06:05:20;102812.25;;;9.23;100.00
18436;BME280;9346;52.006;4.720;2023-05-18T06:07:47;102804.38;;;9.27;100.00
18436;BME280;9346;52.006;4.720;2023-05-18T06:10:14;102813.66;;;9.32;100.00
18436;BME280;9346;52.006;4.720;2023-05-18T06:12:40;102810.66;;;9.40;100.00
18436;BME280;9346;52.006;4.720;2023-05-18T06:15:08;102814.44;;;9.46;100.00
18436;BME280;9346;52.006;4.720;2023-05-18T06:17:38;102820.81;;;9.46;100.00
18436;BME280;9346;52.006;4.720;2023-05-18T06:20:09;102817.63;;;9.49;100.00
18436;BME280;9346;52.006;4.720;2023-05-18T06:22:36;102820.75;;;9.53;100.00
18436;BME280;9346;52.006;4.720;2023-05-18T06:25:04;102830.47;;;9.55;100.00
18436;BME280;9346;52.006;4.720;2023-05-18T06:27:32;102823.25;;;9.61;100.00
18436;BME280;9346;52.006;4.720;2023-05-18T06:29:59;102828.50;;;9.69;100.00
18436;BME280;9346;52.006;4.720;2023-05-18T06:32:26;102833.97;;;9.75;100.00
18436;BME280;9346;52.006;4.720;2023-05-18T06:34:54;102838.84;;;9.73;100.00
18436;BME280;9346;52.006;4.720;2023-05-18T06:37:35;102832.25;;;9.74;100.00
18436;BME280;9346;52.006;4.720;2023-05-18T06:40:02;102840.06;;;9.77;100.00
18436;BME280;9346;52.006;4.720;2023-05-18T06:42:31;102844.94;;;9.82;100.00
18436;BME280;9346;52.006;4.720;2023-05-18T06:44:58;102843.19;;;9.87;100.00
18436;BME280;9346;52.006;4.720;2023-05-18T06:47:25;102843.78;;;9.96;100.00
18436;BME280;9346;52.006;4.720;2023-05-18T06:49:54;102842.66;;;10.03;100.00
18436;BME280;9346;52.006;4.720;2023-05-18T06:52:21;102843.66;;;10.15;100.00
18436;BME280;9346;52.006;4.720;2023-05-18T06:54:48;102842.16;;;10.19;100.00
18436;BME280;9346;52.006;4.720;2023-05-18T06:57:16;102849.28;;;10.27;100.00
18436;BME280;9346;52.006;4.720;2023-05-18T06:59:43;102846.09;;;10.30;100.00
18436;BME280;9346;52.006;4.720;2023-05-18T07:02:10;102842.66;;;10.34;100.00
18436;BME280;9346;52.006;4.720;2023-05-18T07:04:36;102844.75;;;10.39;100.00
18436;BME280;9346;52.006;4.720;2023-05-18T07:07:05;102854.91;;;10.38;100.00
18436;BME280;9346;52.006;4.720;2023-05-18T07:09:33;102855.31;;;10.42;100.00
18436;BME280;9346;52.006;4.720;2023-05-18T07:12:01;102843.00;;;10.44;100.00
18436;BME280;9346;52.006;4.720;2023-05-18T07:14:29;102864.16;;;10.50;100.00
18436;BME280;9346;52.006;4.720;2023-05-18T07:16:56;102860.72;;;10.55;100.00
18436;BME280;9346;52.006;4.720;2023-05-18T07:19:23;102859.19;;;10.59;100.00
18436;BME280;9346;52.006;4.720;2023-05-18T07:21:50;102862.94;;;10.64;100.00
18436;BME280;9346;52.006;4.720;2023-05-18T07:24:19;102857.41;;;10.71;100.00
18436;BME280;9346;52.006;4.720;2023-05-18T07:26:45;102859.69;;;10.74;100.00
18436;BME280;9346;52.006;4.720;2023-05-18T07:29:12;102852.69;;;10.71;100.00
18436;BME280;9346;52.006;4.720;2023-05-18T07:31:39;102856.72;;;10.75;100.00
18436;BME280;9346;52.006;4.720;2023-05-18T07:34:09;102856.63;;;10.82;100.00
18436;BME280;9346;52.006;4.720;2023-05-18T07:36:36;102864.63;;;10.90;100.00
18436;BME280;9346;52.006;4.720;2023-05-18T07:39:03;102856.91;;;10.98;100.00
18436;BME280;9346;52.006;4.720;2023-05-18T07:41:31;102866.38;;;11.02;100.00
18436;BME280;9346;52.006;4.720;2023-05-18T07:43:58;102862.94;;;11.07;100.00
18436;BME280;9346;52.006;4.720;2023-05-18T07:46:26;102864.84;;;11.06;100.00
18436;BME280;9346;52.006;4.720;2023-05-18T07:48:57;102862.78;;;11.02;100.00
18436;BME280;9346;52.006;4.720;2023-05-18T07:51:25;102875.13;;;10.99;100.00
18436;BME280;9346;52.006;4.720;2023-05-18T07:53:52;102866.97;;;10.86;100.00
18436;BME280;9346;52.006;4.720;2023-05-18T07:56:19;102873.81;;;10.84;100.00
18436;BME280;9346;52.006;4.720;2023-05-18T07:58:48;102875.66;;;10.90;100.00
18436;BME280;9346;52.006;4.720;2023-05-18T08:01:17;102870.06;;;10.96;100.00
18436;BME280;9346;52.006;4.720;2023-05-18T08:03:44;102878.50;;;11.01;100.00
18436;BME280;9346;52.006;4.720;2023-05-18T08:06:11;102871.84;;;11.09;100.00
18436;BME280;9346;52.006;4.720;2023-05-18T08:08:38;102878.94;;;11.16;100.00
18436;BME280;9346;52.006;4.720;2023-05-18T08:11:05;102875.97;;;11.18;100.00
18436;BME280;9346;52.006;4.720;2023-05-18T08:13:32;102878.34;;;11.14;100.00
18436;BME280;9346;52.006;4.720;2023-05-18T08:16:01;102879.66;;;11.12;100.00
18436;BME280;9346;52.006;4.720;2023-05-18T08:18:28;102877.06;;;11.17;100.00
18436;BME280;9346;52.006;4.720;2023-05-18T08:20:55;102881.03;;;11.21;100.00
18436;BME280;9346;52.006;4.720;2023-05-18T08:23:23;102875.69;;;11.26;100.00
18436;BME280;9346;52.006;4.720;2023-05-18T08:25:50;102869.47;;;11.30;100.00
18436;BME280;9346;52.006;4.720;2023-05-18T08:28:17;102877.88;;;11.35;100.00
18436;BME280;9346;52.006;4.720;2023-05-18T08:30:44;102867.25;;;11.39;100.00
18436;BME280;9346;52.006;4.720;2023-05-18T08:33:12;102869.09;;;11.45;100.00
18436;BME280;9346;52.006;4.720;2023-05-18T08:35:39;102869.59;;;11.54;100.00
18436;BME280;9346;52.006;4.720;2023-05-18T08:38:09;102869.38;;;11.55;100.00
18436;BME280;9346;52.006;4.720;2023-05-18T08:40:41;102866.00;;;11.53;100.00
18436;BME280;9346;52.006;4.720;2023-05-18T08:43:11;102867.31;;;11.51;100.00
18436;BME280;9346;52.006;4.720;2023-05-18T08:45:47;102868.38;;;11.50;100.00
18436;BME280;9346;52.006;4.720;2023-05-18T08:48:20;102862.63;;;11.51;100.00
18436;BME280;9346;52.006;4.720;2023-05-18T08:50:48;102862.00;;;11.49;100.00
18436;BME280;9346;52.006;4.720;2023-05-18T08:53:18;102865.16;;;11.53;100.00
18436;BME280;9346;52.006;4.720;2023-05-18T08:55:49;102855.34;;;11.57;100.00
18436;BME280;9346;52.006;4.720;2023-05-18T08:58:18;102862.31;;;11.59;100.00
18436;BME280;9346;52.006;4.720;2023-05-18T09:00:47;102860.09;;;11.68;100.00
18436;BME280;9346;52.006;4.720;2023-05-18T09:03:21;102853.06;;;11.72;100.00
18436;BME280;9346;52.006;4.720;2023-05-18T09:05:49;102857.50;;;11.73;100.00
18436;BME280;9346;52.006;4.720;2023-05-18T09:08:18;102859.03;;;11.69;100.00
18436;BME280;9346;52.006;4.720;2023-05-18T09:10:46;102849.34;;;11.60;100.00
18436;BME280;9346;52.006;4.720;2023-05-18T09:13:14;102847.91;;;11.57;100.00
18436;BME280;9346;52.006;4.720;2023-05-18T09:15:44;102846.06;;;11.69;100.00
18436;BME280;9346;52.006;4.720;2023-05-18T09:18:10;102840.00;;;11.79;100.00
18436;BME280;9346;52.006;4.720;2023-05-18T09:20:39;102840.00;;;11.79;100.00
18436;BME280;9346;52.006;4.720;2023-05-18T09:23:06;102839.75;;;11.80;100.00
18436;BME280;9346;52.006;4.720;2023-05-18T09:25:35;102831.13;;;11.88;100.00
18436;BME280;9346;52.006;4.720;2023-05-18T09:28:05;102820.94;;;11.89;100.00
18436;BME280;9346;52.006;4.720;2023-05-18T09:30:39;102830.59;;;11.98;100.00
18436;BME280;9346;52.006;4.720;2023-05-18T09:33:14;102820.59;;;11.97;100.00
18436;BME280;9346;52.006;4.720;2023-05-18T09:35:45;102814.28;;;12.08;100.00
18436;BME280;9346;52.006;4.720;2023-05-18T09:38:14;102817.16;;;12.13;100.00
18436;BME280;9346;52.006;4.720;2023-05-18T09:40:51;102820.41;;;12.21;100.00
18436;BME280;9346;52.006;4.720;2023-05-18T09:43:20;102826.69;;;12.28;100.00
18436;BME280;9346;52.006;4.720;2023-05-18T09:45:57;102823.78;;;12.23;100.00
18436;BME280;9346;52.006;4.720;2023-05-18T09:48:26;102822.69;;;12.24;100.00
18436;BME280;9346;52.006;4.720;2023-05-18T09:50:57;102820.75;;;12.13;100.00
18436;BME280;9346;52.006;4.720;2023-05-18T09:53:24;102815.84;;;12.15;100.00
18436;BME280;9346;52.006;4.720;2023-05-18T09:55:51;102818.75;;;12.32;100.00
18436;BME280;9346;52.006;4.720;2023-05-18T09:58:18;102823.81;;;12.46;100.00
18436;BME280;9346;52.006;4.720;2023-05-18T10:00:47;102818.75;;;12.55;100.00
18436;BME280;9346;52.006;4.720;2023-05-18T10:03:17;102827.91;;;12.55;100.00
18436;BME280;9346;52.006;4.720;2023-05-18T10:05:44;102825.75;;;12.57;100.00
18436;BME280;9346;52.006;4.720;2023-05-18T10:08:15;102826.34;;;12.59;100.00
18436;BME280;9346;52.006;4.720;2023-05-18T10:10:44;102815.41;;;12.64;100.00
18436;BME280;9346;52.006;4.720;2023-05-18T10:13:13;102819.59;;;12.78;100.00
18436;BME280;9346;52.006;4.720;2023-05-18T10:15:47;102821.66;;;12.83;100.00
18436;BME280;9346;52.006;4.720;2023-05-18T10:18:19;102822.28;;;12.73;100.00
18436;BME280;9346;52.006;4.720;2023-05-18T10:20:47;102825.03;;;12.73;100.00
18436;BME280;9346;52.006;4.720;2023-05-18T10:23:17;102814.47;;;12.70;100.00
18436;BME280;9346;52.006;4.720;2023-05-18T10:25:46;102816.47;;;12.63;100.00
18436;BME280;9346;52.006;4.720;2023-05-18T10:28:17;102810.97;;;12.75;100.00
18436;BME280;9346;52.006;4.720;2023-05-18T10:30:51;102809.88;;;12.87;100.00
18436;BME280;9346;52.006;4.720;2023-05-18T10:33:22;102818.25;;;12.92;100.00
18436;BME280;9346;52.006;4.720;2023-05-18T10:35:51;102809.72;;;12.94;100.00
18436;BME280;9346;52.006;4.720;2023-05-18T10:38:21;102808.91;;;12.93;100.00
18436;BME280;9346;52.006;4.720;2023-05-18T10:40:50;102799.66;;;12.88;100.00
18436;BME280;9346;52.006;4.720;2023-05-18T10:43:22;102800.94;;;12.85;100.00
18436;BME280;9346;52.006;4.720;2023-05-18T10:45:52;102800.34;;;12.95;100.00
18436;BME280;9346;52.006;4.720;2023-05-18T10:48:21;102795.41;;;13.08;100.00
18436;BME280;9346;52.006;4.720;2023-05-18T10:50:51;102792.13;;;13.23;100.00
18436;BME280;9346;52.006;4.720;2023-05-18T10:53:22;102797.13;;;13.37;100.00
18436;BME280;9346;52.006;4.720;2023-05-18T10:55:50;102791.41;;;13.56;100.00
18436;BME280;9346;52.006;4.720;2023-05-18T10:58:18;102785.38;;;13.59;100.00
18436;BME280;9346;52.006;4.720;2023-05-18T11:00:48;102791.28;;;13.62;100.00
18436;BME280;9346;52.006;4.720;2023-05-18T11:03:16;102796.06;;;13.67;100.00
18436;BME280;9346;52.006;4.720;2023-05-18T11:05:48;102783.78;;;13.63;100.00
18436;BME280;9346;52.006;4.720;2023-05-18T11:08:23;102799.97;;;13.54;100.00
18436;BME280;9346;52.006;4.720;2023-05-18T11:10:59;102792.75;;;13.53;100.00
18436;BME280;9346;52.006;4.720;2023-05-18T11:13:27;102781.44;;;13.55;100.00
18436;BME280;9346;52.006;4.720;2023-05-18T11:16:05;102780.47;;;13.49;100.00
18436;BME280;9346;52.006;4.720;2023-05-18T11:18:41;102783.00;;;13.50;100.00
18436;BME280;9346;52.006;4.720;2023-05-18T11:21:29;102776.47;;;13.57;100.00
18436;BME280;9346;52.006;4.720;2023-05-18T11:24:31;102784.47;;;13.53;100.00
18436;BME280;9346;52.006;4.720;2023-05-18T11:27:12;102786.31;;;13.64;100.00
18436;BME280;9346;52.006;4.720;2023-05-18T11:29:41;102782.50;;;13.82;100.00
18436;BME280;9346;52.006;4.720;2023-05-18T11:32:21;102773.81;;;13.90;100.00
18436;BME280;9346;52.006;4.720;2023-05-18T11:34:49;102771.69;;;13.97;100.00
18436;BME280;9346;52.006;4.720;2023-05-18T11:37:46;102776.75;;;14.16;100.00
18436;BME280;9346;52.006;4.720;2023-05-18T11:40:43;102775.94;;;14.32;100.00
18436;BME280;9346;52.006;4.720;2023-05-18T11:43:21;102778.94;;;14.47;100.00
18436;BME280;9346;52.006;4.720;2023-05-18T11:45:52;102768.25;;;14.56;100.00
18436;BME280;9346;52.006;4.720;2023-05-18T11:48:20;102768.00;;;14.57;100.00
18436;BME280;9346;52.006;4.720;2023-05-18T11:50:47;102767.00;;;14.63;100.00
18436;BME280;9346;52.006;4.720;2023-05-18T11:53:15;102761.63;;;14.57;100.00
18436;BME280;9346;52.006;4.720;2023-05-18T11:55:44;102753.75;;;14.49;100.00
18436;BME280;9346;52.006;4.720;2023-05-18T11:58:12;102774.50;;;14.46;100.00
18436;BME280;9346;52.006;4.720;2023-05-18T12:00:43;102756.50;;;14.49;100.00
18436;BME280;9346;52.006;4.720;2023-05-18T12:03:12;102751.81;;;14.49;100.00
18436;BME280;9346;52.006;4.720;2023-05-18T12:05:41;102747.50;;;14.58;100.00
18436;BME280;9346;52.006;4.720;2023-05-18T12:08:15;102757.00;;;14.62;100.00
18436;BME280;9346;52.006;4.720;2023-05-18T12:10:45;102745.34;;;14.44;100.00
18436;BME280;9346;52.006;4.720;2023-05-18T12:13:12;102741.66;;;14.38;100.00
18436;BME280;9346;52.006;4.720;2023-05-18T12:15:40;102745.53;;;14.37;100.00
18436;BME280;9346;52.006;4.720;2023-05-18T12:18:08;102735.75;;;14.18;100.00
18436;BME280;9346;52.006;4.720;2023-05-18T12:20:38;102739.72;;;14.06;100.00
18436;BME280;9346;52.006;4.720;2023-05-18T12:23:05;102737.53;;;14.08;100.00
18436;BME280;9346;52.006;4.720;2023-05-18T12:31:51;102731.94;;;14.74;100.00
18436;BME280;9346;52.006;4.720;2023-05-18T12:34:18;102734.69;;;14.74;100.00
18436;BME280;9346;52.006;4.720;2023-05-18T12:36:51;102730.91;;;14.80;100.00
18436;BME280;9346;52.006;4.720;2023-05-18T12:39:19;102737.66;;;14.89;100.00
18436;BME280;9346;52.006;4.720;2023-05-18T12:41:46;102725.22;;;14.91;100.00
18436;BME280;9346;52.006;4.720;2023-05-18T12:44:13;102730.56;;;14.98;100.00
18436;BME280;9346;52.006;4.720;2023-05-18T12:46:41;102728.06;;;14.96;100.00
18436;BME280;9346;52.006;4.720;2023-05-18T12:49:10;102731.41;;;14.98;100.00
18436;BME280;9346;52.006;4.720;2023-05-18T12:51:38;102720.56;;;14.97;100.00
18436;BME280;9346;52.006;4.720;2023-05-18T12:54:05;102720.38;;;15.03;100.00
18436;BME280;9346;52.006;4.720;2023-05-18T12:56:48;102723.47;;;15.07;100.00
18436;BME280;9346;52.006;4.720;2023-05-18T12:59:16;102728.63;;;15.20;100.00
18436;BME280;9346;52.006;4.720;2023-05-18T13:01:43;102720.34;;;15.25;100.00
18436;BME280;9346;52.006;4.720;2023-05-18T13:04:12;102719.78;;;15.23;100.00
18436;BME280;9346;52.006;4.720;2023-05-18T13:06:40;102711.75;;;15.26;100.00
18436;BME280;9346;52.006;4.720;2023-05-18T13:09:07;102713.34;;;15.39;100.00
18436;BME280;9346;52.006;4.720;2023-05-18T13:11:34;102710.72;;;15.54;100.00